sensor_id;sensor_type;location;lat;lon;timestamp;temperature;humidity
15413;DHT22;7805;49.554;7.632;2024-03-06T00:01:42;4.00;99.90
15413;DHT22;7805;49.554;7.632;2024-03-06T00:04:07;4.00;99.90
15413;DHT22;7805;49.554;7.632;2024-03-06T00:06:33;4.00;99.90
15413;DHT22;7805;49.554;7.632;2024-03-06T00:08:59;4.00;99.90
15413;DHT22;7805;49.554;7.632;2024-03-06T00:11:25;4.10;99.90
15413;DHT22;7805;49.554;7.632;2024-03-06T00:13:51;4.10;99.90
15413;DHT22;7805;49.554;7.632;2024-03-06T00:16:16;4.10;99.90
15413;DHT22;7805;49.554;7.632;2024-03-06T00:18:42;4.10;99.90
15413;DHT22;7805;49.554;7.632;2024-03-06T00:21:08;4.10;99.90
15413;DHT22;7805;49.554;7.632;2024-03-06T00:23:35;5.40;99.90
15413;DHT22;7805;49.554;7.632;2024-03-06T00:26:01;3.90;99.90
15413;DHT22;7805;49.554;7.632;2024-03-06T00:28:27;3.80;99.90
15413;DHT22;7805;49.554;7.632;2024-03-06T00:30:53;3.80;99.90
15413;DHT22;7805;49.554;7.632;2024-03-06T00:33:19;3.80;99.90
15413;DHT22;7805;49.554;7.632;2024-03-06T00:35:44;3.90;99.90
15413;DHT22;7805;49.554;7.632;2024-03-06T00:38:10;3.90;99.90
15413;DHT22;7805;49.554;7.632;2024-03-06T00:40:35;3.90;99.90
15413;DHT22;7805;49.554;7.632;2024-03-06T00:43:01;3.90;99.90
15413;DHT22;7805;49.554;7.632;2024-03-06T00:45:26;3.90;99.90
15413;DHT22;7805;49.554;7.632;2024-03-06T00:47:52;3.90;99.90
15413;DHT22;7805;49.554;7.632;2024-03-06T00:50:17;3.90;99.90
15413;DHT22;7805;49.554;7.632;2024-03-06T00:52:43;3.80;99.90
15413;DHT22;7805;49.554;7.632;2024-03-06T00:55:09;3.80;99.90
15413;DHT22;7805;49.554;7.632;2024-03-06T00:57:35;3.80;99.90
15413;DHT22;7805;49.554;7.632;2024-03-06T01:00:02;3.80;99.90
15413;DHT22;7805;49.554;7.632;2024-03-06T01:02:37;3.80;99.90
15413;DHT22;7805;49.554;7.632;2024-03-06T01:05:03;3.90;99.90
15413;DHT22;7805;49.554;7.632;2024-03-06T01:07:30;3.90;99.90
15413;DHT22;7805;49.554;7.632;2024-03-06T01:09:59;3.90;99.90
15413;DHT22;7805;49.554;7.632;2024-03-06T01:12:25;3.90;99.90
15413;DHT22;7805;49.554;7.632;2024-03-06T01:14:51;3.90;99.90
15413;DHT22;7805;49.554;7.632;2024-03-06T01:17:16;3.80;99.90
15413;DHT22;7805;49.554;7.632;2024-03-06T01:19:42;4.00;99.90
15413;DHT22;7805;49.554;7.632;2024-03-06T01:22:09;4.00;99.90
15413;DHT22;7805;49.554;7.632;2024-03-06T01:24:34;4.00;99.90
15413;DHT22;7805;49.554;7.632;2024-03-06T01:27:00;4.00;99.90
15413;DHT22;7805;49.554;7.632;2024-03-06T01:29:28;4.00;99.90
15413;DHT22;7805;49.554;7.632;2024-03-06T01:31:54;3.80;99.90
15413;DHT22;7805;49.554;7.632;2024-03-06T01:34:20;3.60;99.90
15413;DHT22;7805;49.554;7.632;2024-03-06T01:36:46;3.50;99.90
15413;DHT22;7805;49.554;7.632;2024-03-06T01:39:11;3.30;99.90
15413;DHT22;7805;49.554;7.632;2024-03-06T01:41:37;3.20;99.90
15413;DHT22;7805;49.554;7.632;2024-03-06T01:44:03;3.20;99.90
15413;DHT22;7805;49.554;7.632;2024-03-06T01:46:29;3.30;99.90
15413;DHT22;7805;49.554;7.632;2024-03-06T01:48:55;3.30;99.90
15413;DHT22;7805;49.554;7.632;2024-03-06T01:51:24;3.40;99.90
15413;DHT22;7805;49.554;7.632;2024-03-06T01:53:50;3.50;99.90
15413;DHT22;7805;49.554;7.632;2024-03-06T01:56:16;3.50;99.90
15413;DHT22;7805;49.554;7.632;2024-03-06T01:58:43;3.50;99.90
15413;DHT22;7805;49.554;7.632;2024-03-06T02:01:11;3.60;99.90
15413;DHT22;7805;49.554;7.632;2024-03-06T02:03:37;3.60;99.90
15413;DHT22;7805;49.554;7.632;2024-03-06T02:06:03;3.60;99.90
15413;DHT22;7805;49.554;7.632;2024-03-06T02:08:30;3.60;99.90
15413;DHT22;7805;49.554;7.632;2024-03-06T02:10:56;3.70;99.90
15413;DHT22;7805;49.554;7.632;2024-03-06T02:13:21;3.70;99.90
15413;DHT22;7805;49.554;7.632;2024-03-06T02:15:48;3.70;99.90
15413;DHT22;7805;49.554;7.632;2024-03-06T02:18:14;3.60;99.90
15413;DHT22;7805;49.554;7.632;2024-03-06T02:20:40;3.60;99.90
15413;DHT22;7805;49.554;7.632;2024-03-06T02:23:06;3.60;99.90
15413;DHT22;7805;49.554;7.632;2024-03-06T02:25:32;3.50;99.90
15413;DHT22;7805;49.554;7.632;2024-03-06T02:27:57;3.60;99.90
15413;DHT22;7805;49.554;7.632;2024-03-06T02:30:24;3.60;99.90
15413;DHT22;7805;49.554;7.632;2024-03-06T02:32:49;3.60;99.90
15413;DHT22;7805;49.554;7.632;2024-03-06T02:35:15;3.60;99.90
15413;DHT22;7805;49.554;7.632;2024-03-06T02:37:44;3.50;99.90
15413;DHT22;7805;49.554;7.632;2024-03-06T02:40:10;3.50;99.90
15413;DHT22;7805;49.554;7.632;2024-03-06T02:42:36;3.60;99.90
15413;DHT22;7805;49.554;7.632;2024-03-06T02:45:06;3.60;99.90
15413;DHT22;7805;49.554;7.632;2024-03-06T02:47:32;5.90;99.90
15413;DHT22;7805;49.554;7.632;2024-03-06T02:49:58;3.60;99.90
15413;DHT22;7805;49.554;7.632;2024-03-06T02:52:23;3.50;99.90
15413;DHT22;7805;49.554;7.632;2024-03-06T02:54:49;3.40;99.90
15413;DHT22;7805;49.554;7.632;2024-03-06T02:57:14;3.40;99.90
15413;DHT22;7805;49.554;7.632;2024-03-06T02:59:40;3.30;99.90
15413;DHT22;7805;49.554;7.632;2024-03-06T03:02:06;3.20;99.90
15413;DHT22;7805;49.554;7.632;2024-03-06T03:04:31;3.30;99.90
15413;DHT22;7805;49.554;7.632;2024-03-06T03:06:57;3.40;99.90
15413;DHT22;7805;49.554;7.632;2024-03-06T03:09:23;3.40;99.90
15413;DHT22;7805;49.554;7.632;2024-03-06T03:11:48;3.50;99.90
15413;DHT22;7805;49.554;7.632;2024-03-06T03:14:14;3.50;99.90
15413;DHT22;7805;49.554;7.632;2024-03-06T03:16:40;3.50;99.90
15413;DHT22;7805;49.554;7.632;2024-03-06T03:19:07;3.50;99.90
15413;DHT22;7805;49.554;7.632;2024-03-06T03:21:34;3.40;99.90
15413;DHT22;7805;49.554;7.632;2024-03-06T03:23:59;3.40;99.90
15413;DHT22;7805;49.554;7.632;2024-03-06T03:26:25;3.40;99.90
15413;DHT22;7805;49.554;7.632;2024-03-06T03:28:51;3.40;99.90
15413;DHT22;7805;49.554;7.632;2024-03-06T03:31:16;3.40;99.90
15413;DHT22;7805;49.554;7.632;2024-03-06T03:33:42;3.50;99.90
15413;DHT22;7805;49.554;7.632;2024-03-06T03:36:08;3.50;99.90
15413;DHT22;7805;49.554;7.632;2024-03-06T03:38:40;3.60;99.90
15413;DHT22;7805;49.554;7.632;2024-03-06T03:41:12;3.50;99.90
15413;DHT22;7805;49.554;7.632;2024-03-06T03:43:41;3.50;99.90
15413;DHT22;7805;49.554;7.632;2024-03-06T03:46:07;3.50;99.90
15413;DHT22;7805;49.554;7.632;2024-03-06T03:48:34;3.50;99.90
15413;DHT22;7805;49.554;7.632;2024-03-06T03:51:03;3.40;99.90
15413;DHT22;7805;49.554;7.632;2024-03-06T03:53:30;3.40;99.90
15413;DHT22;7805;49.554;7.632;2024-03-06T03:55:55;3.40;99.90
15413;DHT22;7805;49.554;7.632;2024-03-06T03:58:21;3.40;99.90
15413;DHT22;7805;49.554;7.632;2024-03-06T04:00:47;3.50;99.90
15413;DHT22;7805;49.554;7.632;2024-03-06T04:03:12;3.50;99.90
15413;DHT22;7805;49.554;7.632;2024-03-06T04:05:38;3.50;99.90
15413;DHT22;7805;49.554;7.632;2024-03-06T04:08:03;3.50;99.90
15413;DHT22;7805;49.554;7.632;2024-03-06T04:10:31;3.40;99.90
15413;DHT22;7805;49.554;7.632;2024-03-06T04:12:58;3.40;99.90
15413;DHT22;7805;49.554;7.632;2024-03-06T04:15:25;3.40;99.90
15413;DHT22;7805;49.554;7.632;2024-03-06T04:17:50;3.40;99.90
15413;DHT22;7805;49.554;7.632;2024-03-06T04:20:17;3.40;99.90
15413;DHT22;7805;49.554;7.632;2024-03-06T04:22:43;3.50;99.90
15413;DHT22;7805;49.554;7.632;2024-03-06T04:25:09;3.40;99.90
15413;DHT22;7805;49.554;7.632;2024-03-06T04:27:35;3.40;99.90
15413;DHT22;7805;49.554;7.632;2024-03-06T04:30:00;3.50;99.90
15413;DHT22;7805;49.554;7.632;2024-03-06T04:32:26;3.40;99.90
15413;DHT22;7805;49.554;7.632;2024-03-06T04:34:51;3.40;99.90
15413;DHT22;7805;49.554;7.632;2024-03-06T04:37:19;3.40;99.90
15413;DHT22;7805;49.554;7.632;2024-03-06T04:39:44;3.40;99.90
15413;DHT22;7805;49.554;7.632;2024-03-06T04:42:10;3.50;99.90
15413;DHT22;7805;49.554;7.632;2024-03-06T04:44:36;3.50;99.90
15413;DHT22;7805;49.554;7.632;2024-03-06T04:47:01;3.50;99.90
15413;DHT22;7805;49.554;7.632;2024-03-06T04:49:27;3.50;99.90
15413;DHT22;7805;49.554;7.632;2024-03-06T04:51:53;3.50;99.90
15413;DHT22;7805;49.554;7.632;2024-03-06T04:54:19;3.50;99.90
15413;DHT22;7805;49.554;7.632;2024-03-06T04:56:44;3.50;99.90
15413;DHT22;7805;49.554;7.632;2024-03-06T04:59:10;3.50;99.90
15413;DHT22;7805;49.554;7.632;2024-03-06T05:01:35;3.50;99.90
15413;DHT22;7805;49.554;7.632;2024-03-06T05:04:01;3.50;99.90
15413;DHT22;7805;49.554;7.632;2024-03-06T05:06:26;3.50;99.90
15413;DHT22;7805;49.554;7.632;2024-03-06T05:08:52;3.50;99.90
15413;DHT22;7805;49.554;7.632;2024-03-06T05:11:17;3.50;99.90
15413;DHT22;7805;49.554;7.632;2024-03-06T05:13:43;3.40;99.90
15413;DHT22;7805;49.554;7.632;2024-03-06T05:16:08;3.30;99.90
15413;DHT22;7805;49.554;7.632;2024-03-06T05:18:35;3.20;99.90
15413;DHT22;7805;49.554;7.632;2024-03-06T05:21:00;3.20;99.90
15413;DHT22;7805;49.554;7.632;2024-03-06T05:23:26;3.10;99.90
15413;DHT22;7805;49.554;7.632;2024-03-06T05:25:52;3.10;99.90
15413;DHT22;7805;49.554;7.632;2024-03-06T05:28:17;3.20;99.90
15413;DHT22;7805;49.554;7.632;2024-03-06T05:30:43;3.30;99.90
15413;DHT22;7805;49.554;7.632;2024-03-06T05:33:08;3.30;99.90
15413;DHT22;7805;49.554;7.632;2024-03-06T05:35:34;3.30;99.90
15413;DHT22;7805;49.554;7.632;2024-03-06T05:37:59;3.30;99.90
15413;DHT22;7805;49.554;7.632;2024-03-06T05:40:25;3.30;99.90
15413;DHT22;7805;49.554;7.632;2024-03-06T05:42:51;3.30;99.90
15413;DHT22;7805;49.554;7.632;2024-03-06T05:45:16;3.20;99.90
15413;DHT22;7805;49.554;7.632;2024-03-06T05:47:42;3.20;99.90
15413;DHT22;7805;49.554;7.632;2024-03-06T05:50:08;3.20;99.90
15413;DHT22;7805;49.554;7.632;2024-03-06T05:52:36;3.20;99.90
15413;DHT22;7805;49.554;7.632;2024-03-06T05:55:02;3.20;99.90
15413;DHT22;7805;49.554;7.632;2024-03-06T05:57:28;3.20;99.90
15413;DHT22;7805;49.554;7.632;2024-03-06T05:59:53;3.20;99.90
15413;DHT22;7805;49.554;7.632;2024-03-06T06:02:19;3.20;99.90
15413;DHT22;7805;49.554;7.632;2024-03-06T06:04:46;3.30;99.90
15413;DHT22;7805;49.554;7.632;2024-03-06T06:07:11;3.30;99.90
15413;DHT22;7805;49.554;7.632;2024-03-06T06:09:37;3.30;99.90
15413;DHT22;7805;49.554;7.632;2024-03-06T06:12:02;3.30;99.90
15413;DHT22;7805;49.554;7.632;2024-03-06T06:14:28;3.20;99.90
15413;DHT22;7805;49.554;7.632;2024-03-06T06:16:55;3.20;99.90
15413;DHT22;7805;49.554;7.632;2024-03-06T06:19:21;3.20;99.90
15413;DHT22;7805;49.554;7.632;2024-03-06T06:21:47;3.30;99.90
15413;DHT22;7805;49.554;7.632;2024-03-06T06:24:13;3.30;99.90
15413;DHT22;7805;49.554;7.632;2024-03-06T06:26:39;3.30;99.90
15413;DHT22;7805;49.554;7.632;2024-03-06T06:29:04;3.30;99.90
15413;DHT22;7805;49.554;7.632;2024-03-06T06:31:30;3.30;99.90
15413;DHT22;7805;49.554;7.632;2024-03-06T06:33:56;3.40;99.90
15413;DHT22;7805;49.554;7.632;2024-03-06T06:36:21;3.40;99.90
15413;DHT22;7805;49.554;7.632;2024-03-06T06:38:48;3.30;99.90
15413;DHT22;7805;49.554;7.632;2024-03-06T06:41:14;3.50;99.90
15413;DHT22;7805;49.554;7.632;2024-03-06T06:43:40;3.40;99.90
15413;DHT22;7805;49.554;7.632;2024-03-06T06:46:07;3.50;99.90
15413;DHT22;7805;49.554;7.632;2024-03-06T06:48:32;3.40;99.90
15413;DHT22;7805;49.554;7.632;2024-03-06T06:51:00;3.40;99.90
15413;DHT22;7805;49.554;7.632;2024-03-06T06:53:28;3.30;99.90
15413;DHT22;7805;49.554;7.632;2024-03-06T06:55:53;3.40;99.90
15413;DHT22;7805;49.554;7.632;2024-03-06T06:58:19;3.40;99.90
15413;DHT22;7805;49.554;7.632;2024-03-06T07:00:45;3.50;99.90
15413;DHT22;7805;49.554;7.632;2024-03-06T07:03:11;3.50;99.90
15413;DHT22;7805;49.554;7.632;2024-03-06T07:05:36;3.60;99.90
15413;DHT22;7805;49.554;7.632;2024-03-06T07:08:02;3.60;99.90
15413;DHT22;7805;49.554;7.632;2024-03-06T07:10:28;3.70;99.90
15413;DHT22;7805;49.554;7.632;2024-03-06T07:12:53;3.80;99.90
15413;DHT22;7805;49.554;7.632;2024-03-06T07:15:19;3.80;99.90
15413;DHT22;7805;49.554;7.632;2024-03-06T07:17:45;3.80;99.90
15413;DHT22;7805;49.554;7.632;2024-03-06T07:20:10;3.90;99.90
15413;DHT22;7805;49.554;7.632;2024-03-06T07:22:37;3.90;99.90
15413;DHT22;7805;49.554;7.632;2024-03-06T07:25:02;4.00;99.90
15413;DHT22;7805;49.554;7.632;2024-03-06T07:27:28;4.10;99.90
15413;DHT22;7805;49.554;7.632;2024-03-06T07:29:54;4.20;99.90
15413;DHT22;7805;49.554;7.632;2024-03-06T07:32:19;4.20;99.90
15413;DHT22;7805;49.554;7.632;2024-03-06T07:34:45;4.20;99.90
15413;DHT22;7805;49.554;7.632;2024-03-06T07:37:11;4.30;99.90
15413;DHT22;7805;49.554;7.632;2024-03-06T07:39:37;4.50;99.90
15413;DHT22;7805;49.554;7.632;2024-03-06T07:42:02;4.70;99.90
15413;DHT22;7805;49.554;7.632;2024-03-06T07:44:28;4.80;99.90
15413;DHT22;7805;49.554;7.632;2024-03-06T07:46:53;4.70;99.90
15413;DHT22;7805;49.554;7.632;2024-03-06T07:49:20;4.80;99.90
15413;DHT22;7805;49.554;7.632;2024-03-06T07:51:47;4.90;99.90
15413;DHT22;7805;49.554;7.632;2024-03-06T07:54:13;5.00;99.90
15413;DHT22;7805;49.554;7.632;2024-03-06T07:56:39;5.00;99.90
15413;DHT22;7805;49.554;7.632;2024-03-06T07:59:04;5.20;99.90
15413;DHT22;7805;49.554;7.632;2024-03-06T08:01:32;5.60;99.90
15413;DHT22;7805;49.554;7.632;2024-03-06T08:03:58;5.80;99.90
15413;DHT22;7805;49.554;7.632;2024-03-06T08:06:24;6.00;99.90
15413;DHT22;7805;49.554;7.632;2024-03-06T08:08:50;6.30;99.90
15413;DHT22;7805;49.554;7.632;2024-03-06T08:11:17;6.40;99.90
15413;DHT22;7805;49.554;7.632;2024-03-06T08:13:43;6.40;99.90
15413;DHT22;7805;49.554;7.632;2024-03-06T08:16:09;6.40;99.90
15413;DHT22;7805;49.554;7.632;2024-03-06T08:18:35;6.60;99.90
15413;DHT22;7805;49.554;7.632;2024-03-06T08:21:02;6.70;99.90
15413;DHT22;7805;49.554;7.632;2024-03-06T08:23:29;7.20;99.90
15413;DHT22;7805;49.554;7.632;2024-03-06T08:25:55;7.80;99.90
15413;DHT22;7805;49.554;7.632;2024-03-06T08:28:21;7.90;99.90
15413;DHT22;7805;49.554;7.632;2024-03-06T08:30:47;8.00;99.90
15413;DHT22;7805;49.554;7.632;2024-03-06T08:33:13;8.50;99.90
15413;DHT22;7805;49.554;7.632;2024-03-06T08:35:39;9.00;99.90
15413;DHT22;7805;49.554;7.632;2024-03-06T08:38:05;9.50;99.90
15413;DHT22;7805;49.554;7.632;2024-03-06T08:40:31;9.60;99.90
15413;DHT22;7805;49.554;7.632;2024-03-06T08:42:57;9.90;99.90
15413;DHT22;7805;49.554;7.632;2024-03-06T08:45:22;9.70;99.90
15413;DHT22;7805;49.554;7.632;2024-03-06T08:47:51;9.10;99.90
15413;DHT22;7805;49.554;7.632;2024-03-06T08:50:20;9.20;99.90
15413;DHT22;7805;49.554;7.632;2024-03-06T08:52:46;9.50;99.90
15413;DHT22;7805;49.554;7.632;2024-03-06T08:55:12;9.70;99.90
15413;DHT22;7805;49.554;7.632;2024-03-06T08:57:38;9.60;99.90
15413;DHT22;7805;49.554;7.632;2024-03-06T09:00:05;9.50;99.90
15413;DHT22;7805;49.554;7.632;2024-03-06T09:02:36;9.30;99.90
15413;DHT22;7805;49.554;7.632;2024-03-06T09:05:07;9.30;99.90
15413;DHT22;7805;49.554;7.632;2024-03-06T09:07:34;9.20;99.90
15413;DHT22;7805;49.554;7.632;2024-03-06T09:10:04;9.20;99.90
15413;DHT22;7805;49.554;7.632;2024-03-06T09:12:31;9.40;99.90
15413;DHT22;7805;49.554;7.632;2024-03-06T09:14:56;9.80;99.90
15413;DHT22;7805;49.554;7.632;2024-03-06T09:17:22;10.10;99.90
15413;DHT22;7805;49.554;7.632;2024-03-06T09:19:47;10.10;99.90
15413;DHT22;7805;49.554;7.632;2024-03-06T09:22:13;10.40;99.90
15413;DHT22;7805;49.554;7.632;2024-03-06T09:24:38;10.80;99.90
15413;DHT22;7805;49.554;7.632;2024-03-06T09:27:04;11.10;99.90
15413;DHT22;7805;49.554;7.632;2024-03-06T09:29:30;11.20;99.90
15413;DHT22;7805;49.554;7.632;2024-03-06T09:31:56;11.00;99.90
15413;DHT22;7805;49.554;7.632;2024-03-06T09:34:21;10.80;99.90
15413;DHT22;7805;49.554;7.632;2024-03-06T09:36:48;10.90;99.90
15413;DHT22;7805;49.554;7.632;2024-03-06T09:39:15;11.00;99.90
15413;DHT22;7805;49.554;7.632;2024-03-06T09:41:52;10.70;99.90
15413;DHT22;7805;49.554;7.632;2024-03-06T09:44:18;10.70;99.90
15413;DHT22;7805;49.554;7.632;2024-03-06T09:46:48;10.60;99.90
15413;DHT22;7805;49.554;7.632;2024-03-06T09:49:16;10.50;99.90
15413;DHT22;7805;49.554;7.632;2024-03-06T09:51:46;10.60;99.90
15413;DHT22;7805;49.554;7.632;2024-03-06T09:54:13;10.30;99.90
15413;DHT22;7805;49.554;7.632;2024-03-06T09:56:41;10.10;99.90
15413;DHT22;7805;49.554;7.632;2024-03-06T09:59:07;10.20;99.90
15413;DHT22;7805;49.554;7.632;2024-03-06T10:01:33;10.40;99.90
15413;DHT22;7805;49.554;7.632;2024-03-06T10:04:17;10.60;99.90
15413;DHT22;7805;49.554;7.632;2024-03-06T10:06:44;10.90;99.90
15413;DHT22;7805;49.554;7.632;2024-03-06T10:09:11;11.00;99.90
15413;DHT22;7805;49.554;7.632;2024-03-06T10:11:40;11.10;99.90
15413;DHT22;7805;49.554;7.632;2024-03-06T10:14:07;11.30;99.90
15413;DHT22;7805;49.554;7.632;2024-03-06T10:16:35;11.80;99.90
15413;DHT22;7805;49.554;7.632;2024-03-06T10:19:21;12.30;99.90
15413;DHT22;7805;49.554;7.632;2024-03-06T10:21:48;12.80;99.90
15413;DHT22;7805;49.554;7.632;2024-03-06T10:24:21;13.30;99.90
15413;DHT22;7805;49.554;7.632;2024-03-06T10:26:49;13.60;99.90
15413;DHT22;7805;49.554;7.632;2024-03-06T10:29:19;14.00;99.90
15413;DHT22;7805;49.554;7.632;2024-03-06T10:32:02;14.40;99.90
15413;DHT22;7805;49.554;7.632;2024-03-06T10:34:28;15.00;99.90
15413;DHT22;7805;49.554;7.632;2024-03-06T10:37:00;15.50;99.90
15413;DHT22;7805;49.554;7.632;2024-03-06T10:39:27;15.70;99.90
15413;DHT22;7805;49.554;7.632;2024-03-06T10:41:56;16.00;99.70
15413;DHT22;7805;49.554;7.632;2024-03-06T10:44:23;16.10;98.80
15413;DHT22;7805;49.554;7.632;2024-03-06T10:47:01;16.20;98.40
15413;DHT22;7805;49.554;7.632;2024-03-06T10:49:28;16.00;94.10
15413;DHT22;7805;49.554;7.632;2024-03-06T10:52:00;16.20;94.30
15413;DHT22;7805;49.554;7.632;2024-03-06T10:54:30;16.50;93.00
15413;DHT22;7805;49.554;7.632;2024-03-06T10:56:56;16.50;84.20
15413;DHT22;7805;49.554;7.632;2024-03-06T10:59:24;15.80;89.80
15413;DHT22;7805;49.554;7.632;2024-03-06T11:01:54;16.20;92.80
15413;DHT22;7805;49.554;7.632;2024-03-06T11:04:23;16.40;91.80
15413;DHT22;7805;49.554;7.632;2024-03-06T11:06:49;16.30;91.10
15413;DHT22;7805;49.554;7.632;2024-03-06T11:09:14;16.50;89.10
15413;DHT22;7805;49.554;7.632;2024-03-06T11:11:51;16.60;90.10
15413;DHT22;7805;49.554;7.632;2024-03-06T11:14:18;17.00;86.00
15413;DHT22;7805;49.554;7.632;2024-03-06T11:17:01;16.00;85.60
15413;DHT22;7805;49.554;7.632;2024-03-06T11:19:32;16.80;83.80
15413;DHT22;7805;49.554;7.632;2024-03-06T11:21:58;16.90;85.40
15413;DHT22;7805;49.554;7.632;2024-03-06T11:24:31;16.70;82.30
15413;DHT22;7805;49.554;7.632;2024-03-06T11:26:57;16.70;87.00
15413;DHT22;7805;49.554;7.632;2024-03-06T11:29:28;16.60;86.90
15413;DHT22;7805;49.554;7.632;2024-03-06T11:32:01;17.10;87.00
15413;DHT22;7805;49.554;7.632;2024-03-06T11:34:28;17.20;83.60
15413;DHT22;7805;49.554;7.632;2024-03-06T11:36:59;17.30;84.00
15413;DHT22;7805;49.554;7.632;2024-03-06T11:39:28;17.50;82.70
15413;DHT22;7805;49.554;7.632;2024-03-06T11:41:59;17.50;82.10
15413;DHT22;7805;49.554;7.632;2024-03-06T11:44:26;17.50;77.90
15413;DHT22;7805;49.554;7.632;2024-03-06T11:47:04;16.90;74.20
15413;DHT22;7805;49.554;7.632;2024-03-06T11:49:33;16.80;75.80
15413;DHT22;7805;49.554;7.632;2024-03-06T11:52:02;16.70;76.90
15413;DHT22;7805;49.554;7.632;2024-03-06T11:54:29;16.70;75.80
15413;DHT22;7805;49.554;7.632;2024-03-06T11:56:59;16.40;72.70
15413;DHT22;7805;49.554;7.632;2024-03-06T12:02:02;16.10;76.30
15413;DHT22;7805;49.554;7.632;2024-03-06T12:04:30;16.10;74.10
15413;DHT22;7805;49.554;7.632;2024-03-06T12:07:02;15.80;75.70
15413;DHT22;7805;49.554;7.632;2024-03-06T12:09:34;15.80;77.00
15413;DHT22;7805;49.554;7.632;2024-03-06T12:12:00;15.80;76.70
15413;DHT22;7805;49.554;7.632;2024-03-06T12:14:26;15.00;76.90
15413;DHT22;7805;49.554;7.632;2024-03-06T12:17:15;14.70;78.50
15413;DHT22;7805;49.554;7.632;2024-03-06T12:19:42;14.60;78.30
15413;DHT22;7805;49.554;7.632;2024-03-06T12:22:11;14.70;79.20
15413;DHT22;7805;49.554;7.632;2024-03-06T12:24:37;14.60;78.40
15413;DHT22;7805;49.554;7.632;2024-03-06T12:27:04;14.70;79.40
15413;DHT22;7805;49.554;7.632;2024-03-06T12:29:31;14.70;78.60
15413;DHT22;7805;49.554;7.632;2024-03-06T12:32:01;15.00;80.10
15413;DHT22;7805;49.554;7.632;2024-03-06T12:34:27;15.40;81.40
15413;DHT22;7805;49.554;7.632;2024-03-06T12:36:53;15.60;79.80
15413;DHT22;7805;49.554;7.632;2024-03-06T12:39:18;15.90;78.30
15413;DHT22;7805;49.554;7.632;2024-03-06T12:41:49;16.00;76.00
15413;DHT22;7805;49.554;7.632;2024-03-06T12:44:14;16.20;77.10
15413;DHT22;7805;49.554;7.632;2024-03-06T12:46:40;16.50;76.60
15413;DHT22;7805;49.554;7.632;2024-03-06T12:49:06;16.60;74.40
15413;DHT22;7805;49.554;7.632;2024-03-06T12:51:31;16.50;73.20
15413;DHT22;7805;49.554;7.632;2024-03-06T12:53:58;16.80;74.80
15413;DHT22;7805;49.554;7.632;2024-03-06T12:56:23;16.60;70.20
15413;DHT22;7805;49.554;7.632;2024-03-06T12:58:51;16.30;71.80
15413;DHT22;7805;49.554;7.632;2024-03-06T13:01:16;16.20;71.60
15413;DHT22;7805;49.554;7.632;2024-03-06T13:03:42;16.30;72.20
15413;DHT22;7805;49.554;7.632;2024-03-06T13:06:07;15.70;70.40
15413;DHT22;7805;49.554;7.632;2024-03-06T13:08:33;15.70;73.30
15413;DHT22;7805;49.554;7.632;2024-03-06T13:10:58;15.30;72.80
15413;DHT22;7805;49.554;7.632;2024-03-06T13:13:24;14.90;75.50
15413;DHT22;7805;49.554;7.632;2024-03-06T13:15:53;14.90;77.90
15413;DHT22;7805;49.554;7.632;2024-03-06T13:18:19;14.90;78.10
15413;DHT22;7805;49.554;7.632;2024-03-06T13:20:45;14.90;78.00
15413;DHT22;7805;49.554;7.632;2024-03-06T13:23:11;14.80;78.60
15413;DHT22;7805;49.554;7.632;2024-03-06T13:25:36;14.70;78.90
15413;DHT22;7805;49.554;7.632;2024-03-06T13:28:03;14.50;78.50
15413;DHT22;7805;49.554;7.632;2024-03-06T13:30:29;14.40;79.00
15413;DHT22;7805;49.554;7.632;2024-03-06T13:32:54;14.40;79.90
15413;DHT22;7805;49.554;7.632;2024-03-06T13:35:20;14.50;80.00
15413;DHT22;7805;49.554;7.632;2024-03-06T13:37:47;14.60;81.10
15413;DHT22;7805;49.554;7.632;2024-03-06T13:40:13;14.70;80.80
15413;DHT22;7805;49.554;7.632;2024-03-06T13:42:39;14.50;79.90
15413;DHT22;7805;49.554;7.632;2024-03-06T13:45:06;14.40;81.50
15413;DHT22;7805;49.554;7.632;2024-03-06T13:47:37;14.20;80.70
15413;DHT22;7805;49.554;7.632;2024-03-06T13:50:07;14.10;82.50
15413;DHT22;7805;49.554;7.632;2024-03-06T13:52:33;14.00;83.30
15413;DHT22;7805;49.554;7.632;2024-03-06T13:54:59;14.00;84.50
15413;DHT22;7805;49.554;7.632;2024-03-06T13:57:28;14.00;84.60
15413;DHT22;7805;49.554;7.632;2024-03-06T13:59:53;14.00;84.80
15413;DHT22;7805;49.554;7.632;2024-03-06T14:02:19;14.10;84.00
15413;DHT22;7805;49.554;7.632;2024-03-06T14:04:45;14.20;84.20
15413;DHT22;7805;49.554;7.632;2024-03-06T14:07:10;14.20;83.90
15413;DHT22;7805;49.554;7.632;2024-03-06T14:09:36;14.20;83.60
15413;DHT22;7805;49.554;7.632;2024-03-06T14:12:02;14.10;84.40
15413;DHT22;7805;49.554;7.632;2024-03-06T14:14:28;14.10;84.70
15413;DHT22;7805;49.554;7.632;2024-03-06T14:16:54;14.10;84.70
15413;DHT22;7805;49.554;7.632;2024-03-06T14:19:20;14.10;85.70
15413;DHT22;7805;49.554;7.632;2024-03-06T14:21:47;14.10;86.30
15413;DHT22;7805;49.554;7.632;2024-03-06T14:24:12;14.00;86.70
15413;DHT22;7805;49.554;7.632;2024-03-06T14:26:38;13.90;86.90
15413;DHT22;7805;49.554;7.632;2024-03-06T14:29:05;13.90;88.00
15413;DHT22;7805;49.554;7.632;2024-03-06T14:31:32;13.90;88.70
15413;DHT22;7805;49.554;7.632;2024-03-06T14:33:58;13.80;88.90
15413;DHT22;7805;49.554;7.632;2024-03-06T14:36:23;13.70;90.30
15413;DHT22;7805;49.554;7.632;2024-03-06T14:38:52;13.60;90.90
15413;DHT22;7805;49.554;7.632;2024-03-06T14:41:19;13.60;91.50
15413;DHT22;7805;49.554;7.632;2024-03-06T14:43:44;13.60;91.70
15413;DHT22;7805;49.554;7.632;2024-03-06T14:46:10;13.60;92.40
15413;DHT22;7805;49.554;7.632;2024-03-06T14:48:37;13.50;93.10
15413;DHT22;7805;49.554;7.632;2024-03-06T14:51:03;13.50;93.20
15413;DHT22;7805;49.554;7.632;2024-03-06T14:53:29;15.10;93.70
15413;DHT22;7805;49.554;7.632;2024-03-06T14:55:55;13.60;93.60
15413;DHT22;7805;49.554;7.632;2024-03-06T14:58:21;13.40;94.00
15413;DHT22;7805;49.554;7.632;2024-03-06T15:00:48;13.40;94.10
15413;DHT22;7805;49.554;7.632;2024-03-06T15:03:14;13.30;94.20
15413;DHT22;7805;49.554;7.632;2024-03-06T15:05:39;13.20;94.20
15413;DHT22;7805;49.554;7.632;2024-03-06T15:08:06;13.10;94.00
15413;DHT22;7805;49.554;7.632;2024-03-06T15:10:31;13.10;94.20
15413;DHT22;7805;49.554;7.632;2024-03-06T15:12:58;13.10;94.40
15413;DHT22;7805;49.554;7.632;2024-03-06T15:15:23;13.20;94.50
15413;DHT22;7805;49.554;7.632;2024-03-06T15:17:49;13.10;94.10
15413;DHT22;7805;49.554;7.632;2024-03-06T15:20:15;12.90;93.70
15413;DHT22;7805;49.554;7.632;2024-03-06T15:22:43;12.90;93.70
15413;DHT22;7805;49.554;7.632;2024-03-06T15:25:12;12.80;94.00
15413;DHT22;7805;49.554;7.632;2024-03-06T15:27:39;12.90;94.30
15413;DHT22;7805;49.554;7.632;2024-03-06T15:30:06;13.30;94.20
15413;DHT22;7805;49.554;7.632;2024-03-06T15:32:33;13.00;94.20
15413;DHT22;7805;49.554;7.632;2024-03-06T15:34:58;13.10;94.50
15413;DHT22;7805;49.554;7.632;2024-03-06T15:37:24;12.90;94.50
15413;DHT22;7805;49.554;7.632;2024-03-06T15:39:54;12.80;95.10
15413;DHT22;7805;49.554;7.632;2024-03-06T15:42:20;12.80;95.80
15413;DHT22;7805;49.554;7.632;2024-03-06T15:44:47;12.90;96.30
15413;DHT22;7805;49.554;7.632;2024-03-06T15:47:13;12.70;96.90
15413;DHT22;7805;49.554;7.632;2024-03-06T15:49:39;12.70;97.30
15413;DHT22;7805;49.554;7.632;2024-03-06T15:52:06;12.70;98.00
15413;DHT22;7805;49.554;7.632;2024-03-06T15:54:31;12.60;98.60